sensor_id;sensor_type;location;lat;lon;timestamp;temperature;humidity
48007;DHT22;33771;48.180;11.400;2023-05-10T00:00:20;13.10;99.90
48007;DHT22;33771;48.180;11.400;2023-05-10T00:02:47;13.10;99.90
48007;DHT22;33771;48.180;11.400;2023-05-10T00:05:13;13.00;99.90
48007;DHT22;33771;48.180;11.400;2023-05-10T00:07:39;13.00;99.90
48007;DHT22;33771;48.180;11.400;2023-05-10T00:10:06;13.00;99.90
48007;DHT22;33771;48.180;11.400;2023-05-10T00:12:32;13.00;99.90
48007;DHT22;33771;48.180;11.400;2023-05-10T00:14:57;13.00;99.90
48007;DHT22;33771;48.180;11.400;2023-05-10T00:17:23;13.00;99.90
48007;DHT22;33771;48.180;11.400;2023-05-10T00:19:49;13.00;99.90
48007;DHT22;33771;48.180;11.400;2023-05-10T00:22:14;13.00;99.90
48007;DHT22;33771;48.180;11.400;2023-05-10T00:24:40;13.00;99.90
48007;DHT22;33771;48.180;11.400;2023-05-10T00:27:05;13.00;99.90
48007;DHT22;33771;48.180;11.400;2023-05-10T00:29:31;13.00;99.90
48007;DHT22;33771;48.180;11.400;2023-05-10T00:31:57;13.00;99.90
48007;DHT22;33771;48.180;11.400;2023-05-10T00:34:22;13.00;99.90
48007;DHT22;33771;48.180;11.400;2023-05-10T00:36:48;12.90;99.90
48007;DHT22;33771;48.180;11.400;2023-05-10T00:39:13;12.90;99.90
48007;DHT22;33771;48.180;11.400;2023-05-10T00:41:39;12.90;99.90
48007;DHT22;33771;48.180;11.400;2023-05-10T00:44:04;12.90;99.90
48007;DHT22;33771;48.180;11.400;2023-05-10T00:46:30;12.90;99.90
48007;DHT22;33771;48.180;11.400;2023-05-10T00:48:56;12.90;99.90
48007;DHT22;33771;48.180;11.400;2023-05-10T00:51:22;12.90;99.90
48007;DHT22;33771;48.180;11.400;2023-05-10T00:53:48;12.90;99.90
48007;DHT22;33771;48.180;11.400;2023-05-10T00:56:15;12.90;99.90
48007;DHT22;33771;48.180;11.400;2023-05-10T00:58:41;12.80;99.90
48007;DHT22;33771;48.180;11.400;2023-05-10T01:01:08;12.80;99.90
48007;DHT22;33771;48.180;11.400;2023-05-10T01:03:34;12.90;99.90
48007;DHT22;33771;48.180;11.400;2023-05-10T01:06:00;12.80;99.90
48007;DHT22;33771;48.180;11.400;2023-05-10T01:08:26;12.80;99.90
48007;DHT22;33771;48.180;11.400;2023-05-10T01:10:53;12.90;99.90
48007;DHT22;33771;48.180;11.400;2023-05-10T01:15:53;12.80;99.90
48007;DHT22;33771;48.180;11.400;2023-05-10T01:18:20;12.80;99.90
48007;DHT22;33771;48.180;11.400;2023-05-10T01:20:58;12.80;99.90
48007;DHT22;33771;48.180;11.400;2023-05-10T01:26:25;12.80;99.90
48007;DHT22;33771;48.180;11.400;2023-05-10T01:34:54;12.80;99.90
48007;DHT22;33771;48.180;11.400;2023-05-10T01:37:42;12.80;99.90
48007;DHT22;33771;48.180;11.400;2023-05-10T01:40:26;12.70;99.90
48007;DHT22;33771;48.180;11.400;2023-05-10T01:43:01;12.70;99.90
48007;DHT22;33771;48.180;11.400;2023-05-10T01:45:36;12.70;99.90
48007;DHT22;33771;48.180;11.400;2023-05-10T01:48:09;12.70;99.90
48007;DHT22;33771;48.180;11.400;2023-05-10T01:50:37;12.70;99.90
48007;DHT22;33771;48.180;11.400;2023-05-10T01:53:06;12.70;99.90
48007;DHT22;33771;48.180;11.400;2023-05-10T01:55:35;12.70;99.90
48007;DHT22;33771;48.180;11.400;2023-05-10T01:58:10;12.60;99.90
48007;DHT22;33771;48.180;11.400;2023-05-10T02:00:37;12.60;99.90
48007;DHT22;33771;48.180;11.400;2023-05-10T02:03:06;12.60;99.90
48007;DHT22;33771;48.180;11.400;2023-05-10T02:05:33;12.60;99.90
48007;DHT22;33771;48.180;11.400;2023-05-10T02:08:01;12.60;99.90
48007;DHT22;33771;48.180;11.400;2023-05-10T02:10:29;12.60;99.90
48007;DHT22;33771;48.180;11.400;2023-05-10T02:12:58;12.60;99.90
48007;DHT22;33771;48.180;11.400;2023-05-10T02:15:24;12.50;99.90
48007;DHT22;33771;48.180;11.400;2023-05-10T02:17:54;12.60;99.90
48007;DHT22;33771;48.180;11.400;2023-05-10T02:20:20;12.50;99.90
48007;DHT22;33771;48.180;11.400;2023-05-10T02:22:49;12.50;99.90
48007;DHT22;33771;48.180;11.400;2023-05-10T02:25:18;12.50;99.90
48007;DHT22;33771;48.180;11.400;2023-05-10T02:27:44;12.50;99.90
48007;DHT22;33771;48.180;11.400;2023-05-10T02:30:11;12.50;99.90
48007;DHT22;33771;48.180;11.400;2023-05-10T02:32:37;12.50;99.90
48007;DHT22;33771;48.180;11.400;2023-05-10T02:35:04;12.50;99.90
48007;DHT22;33771;48.180;11.400;2023-05-10T02:37:30;12.50;99.90
48007;DHT22;33771;48.180;11.400;2023-05-10T02:39:56;12.50;99.90
48007;DHT22;33771;48.180;11.400;2023-05-10T02:42:27;12.50;99.90
48007;DHT22;33771;48.180;11.400;2023-05-10T02:44:56;12.50;99.90
48007;DHT22;33771;48.180;11.400;2023-05-10T02:47:24;12.50;99.90
48007;DHT22;33771;48.180;11.400;2023-05-10T02:49:50;12.50;99.90
48007;DHT22;33771;48.180;11.400;2023-05-10T02:52:19;12.50;99.90
48007;DHT22;33771;48.180;11.400;2023-05-10T02:54:49;12.40;99.90
48007;DHT22;33771;48.180;11.400;2023-05-10T02:57:16;12.50;99.90
48007;DHT22;33771;48.180;11.400;2023-05-10T02:59:45;12.50;99.90
48007;DHT22;33771;48.180;11.400;2023-05-10T03:02:12;12.50;99.90
48007;DHT22;33771;48.180;11.400;2023-05-10T03:04:38;12.50;99.90
48007;DHT22;33771;48.180;11.400;2023-05-10T03:07:04;12.50;99.90
48007;DHT22;33771;48.180;11.400;2023-05-10T03:09:30;12.40;99.90
48007;DHT22;33771;48.180;11.400;2023-05-10T03:18:06;12.40;99.90
48007;DHT22;33771;48.180;11.400;2023-05-10T03:20:38;12.40;99.90
48007;DHT22;33771;48.180;11.400;2023-05-10T03:23:35;12.40;99.90
48007;DHT22;33771;48.180;11.400;2023-05-10T03:26:06;12.30;99.90
48007;DHT22;33771;48.180;11.400;2023-05-10T03:28:34;12.30;99.90
48007;DHT22;33771;48.180;11.400;2023-05-10T03:31:00;12.40;99.90
48007;DHT22;33771;48.180;11.400;2023-05-10T03:33:26;12.40;99.90
48007;DHT22;33771;48.180;11.400;2023-05-10T03:35:51;12.30;99.90
48007;DHT22;33771;48.180;11.400;2023-05-10T03:38:17;12.40;99.90
48007;DHT22;33771;48.180;11.400;2023-05-10T03:40:42;12.30;99.90
48007;DHT22;33771;48.180;11.400;2023-05-10T03:43:08;12.30;99.90
48007;DHT22;33771;48.180;11.400;2023-05-10T03:45:33;12.30;99.90
48007;DHT22;33771;48.180;11.400;2023-05-10T03:47:59;12.30;99.90
48007;DHT22;33771;48.180;11.400;2023-05-10T03:50:24;12.30;99.90
48007;DHT22;33771;48.180;11.400;2023-05-10T03:52:50;12.30;99.90
48007;DHT22;33771;48.180;11.400;2023-05-10T03:55:16;12.30;99.90
48007;DHT22;33771;48.180;11.400;2023-05-10T03:57:41;12.30;99.90
48007;DHT22;33771;48.180;11.400;2023-05-10T04:00:07;12.30;99.90
48007;DHT22;33771;48.180;11.400;2023-05-10T04:02:33;12.30;99.90
48007;DHT22;33771;48.180;11.400;2023-05-10T04:04:59;12.30;99.90
48007;DHT22;33771;48.180;11.400;2023-05-10T04:07:24;12.30;99.90
48007;DHT22;33771;48.180;11.400;2023-05-10T04:09:50;12.30;99.90
48007;DHT22;33771;48.180;11.400;2023-05-10T04:12:15;12.30;99.90
48007;DHT22;33771;48.180;11.400;2023-05-10T04:14:41;12.40;99.90
48007;DHT22;33771;48.180;11.400;2023-05-10T04:17:06;12.40;99.90
48007;DHT22;33771;48.180;11.400;2023-05-10T04:19:32;12.40;99.90
48007;DHT22;33771;48.180;11.400;2023-05-10T04:21:58;12.40;99.90
48007;DHT22;33771;48.180;11.400;2023-05-10T04:24:24;12.40;99.90
48007;DHT22;33771;48.180;11.400;2023-05-10T04:26:49;12.40;99.90
48007;DHT22;33771;48.180;11.400;2023-05-10T04:29:15;12.40;99.90
48007;DHT22;33771;48.180;11.400;2023-05-10T04:31:40;12.50;99.90
48007;DHT22;33771;48.180;11.400;2023-05-10T04:34:06;12.50;99.90
48007;DHT22;33771;48.180;11.400;2023-05-10T04:36:32;12.50;99.90
48007;DHT22;33771;48.180;11.400;2023-05-10T04:39:02;12.40;99.90
48007;DHT22;33771;48.180;11.400;2023-05-10T04:41:28;12.40;99.90
48007;DHT22;33771;48.180;11.400;2023-05-10T04:43:54;12.40;99.90
48007;DHT22;33771;48.180;11.400;2023-05-10T04:46:20;12.40;99.90
48007;DHT22;33771;48.180;11.400;2023-05-10T04:48:46;12.50;99.90
48007;DHT22;33771;48.180;11.400;2023-05-10T04:51:11;12.40;99.90
48007;DHT22;33771;48.180;11.400;2023-05-10T04:53:37;12.40;99.90
48007;DHT22;33771;48.180;11.400;2023-05-10T04:56:03;12.40;99.90
48007;DHT22;33771;48.180;11.400;2023-05-10T04:58:28;12.40;99.90
48007;DHT22;33771;48.180;11.400;2023-05-10T05:00:54;12.50;99.90
48007;DHT22;33771;48.180;11.400;2023-05-10T05:03:20;12.40;99.90
48007;DHT22;33771;48.180;11.400;2023-05-10T05:05:47;12.40;99.90
48007;DHT22;33771;48.180;11.400;2023-05-10T05:08:13;12.30;99.90
48007;DHT22;33771;48.180;11.400;2023-05-10T05:10:38;12.40;99.90
48007;DHT22;33771;48.180;11.400;2023-05-10T05:13:04;12.30;99.90
48007;DHT22;33771;48.180;11.400;2023-05-10T05:15:29;12.30;99.90
48007;DHT22;33771;48.180;11.400;2023-05-10T05:17:55;12.30;99.90
48007;DHT22;33771;48.180;11.400;2023-05-10T05:20:21;12.30;99.90
48007;DHT22;33771;48.180;11.400;2023-05-10T05:22:46;12.20;99.90
48007;DHT22;33771;48.180;11.400;2023-05-10T05:25:12;12.20;99.90
48007;DHT22;33771;48.180;11.400;2023-05-10T05:27:38;12.20;99.90
48007;DHT22;33771;48.180;11.400;2023-05-10T05:30:03;12.20;99.90
48007;DHT22;33771;48.180;11.400;2023-05-10T05:32:29;12.20;99.90
48007;DHT22;33771;48.180;11.400;2023-05-10T05:34:55;12.10;99.90
48007;DHT22;33771;48.180;11.400;2023-05-10T05:37:21;12.10;99.90
48007;DHT22;33771;48.180;11.400;2023-05-10T05:39:47;12.10;99.90
48007;DHT22;33771;48.180;11.400;2023-05-10T05:42:13;12.20;99.90
48007;DHT22;33771;48.180;11.400;2023-05-10T05:44:40;12.20;99.90
48007;DHT22;33771;48.180;11.400;2023-05-10T05:47:06;12.20;99.90
48007;DHT22;33771;48.180;11.400;2023-05-10T05:49:32;12.20;99.90
48007;DHT22;33771;48.180;11.400;2023-05-10T05:52:02;12.20;99.90
48007;DHT22;33771;48.180;11.400;2023-05-10T05:54:28;12.30;99.90
48007;DHT22;33771;48.180;11.400;2023-05-10T05:56:54;12.40;99.90
48007;DHT22;33771;48.180;11.400;2023-05-10T05:59:20;12.40;99.90
48007;DHT22;33771;48.180;11.400;2023-05-10T06:01:46;12.40;99.90
48007;DHT22;33771;48.180;11.400;2023-05-10T06:04:11;12.50;99.90
48007;DHT22;33771;48.180;11.400;2023-05-10T06:06:37;12.60;99.90
48007;DHT22;33771;48.180;11.400;2023-05-10T06:09:03;12.60;99.90
48007;DHT22;33771;48.180;11.400;2023-05-10T06:11:28;12.70;99.90
48007;DHT22;33771;48.180;11.400;2023-05-10T06:13:54;12.70;99.90
48007;DHT22;33771;48.180;11.400;2023-05-10T06:16:19;12.80;99.90
48007;DHT22;33771;48.180;11.400;2023-05-10T06:18:45;12.80;99.90
48007;DHT22;33771;48.180;11.400;2023-05-10T06:21:10;12.80;99.90
48007;DHT22;33771;48.180;11.400;2023-05-10T06:23:36;12.90;99.90
48007;DHT22;33771;48.180;11.400;2023-05-10T06:26:01;12.90;99.90
48007;DHT22;33771;48.180;11.400;2023-05-10T06:28:27;13.00;99.90
48007;DHT22;33771;48.180;11.400;2023-05-10T06:30:52;13.00;99.90
48007;DHT22;33771;48.180;11.400;2023-05-10T06:33:18;13.20;99.90
48007;DHT22;33771;48.180;11.400;2023-05-10T06:35:43;13.20;99.90
48007;DHT22;33771;48.180;11.400;2023-05-10T06:38:09;13.20;99.90
48007;DHT22;33771;48.180;11.400;2023-05-10T06:40:35;13.30;99.90
48007;DHT22;33771;48.180;11.400;2023-05-10T06:43:01;13.30;99.90
48007;DHT22;33771;48.180;11.400;2023-05-10T06:45:26;13.40;99.90
48007;DHT22;33771;48.180;11.400;2023-05-10T06:47:52;13.40;99.90
48007;DHT22;33771;48.180;11.400;2023-05-10T06:50:18;13.50;99.90
48007;DHT22;33771;48.180;11.400;2023-05-10T06:52:43;13.60;99.90
48007;DHT22;33771;48.180;11.400;2023-05-10T06:55:09;13.60;99.90
48007;DHT22;33771;48.180;11.400;2023-05-10T06:57:35;13.80;99.90
48007;DHT22;33771;48.180;11.400;2023-05-10T07:00:01;13.90;99.90
48007;DHT22;33771;48.180;11.400;2023-05-10T07:02:29;14.00;99.90
48007;DHT22;33771;48.180;11.400;2023-05-10T07:04:54;14.10;99.90
48007;DHT22;33771;48.180;11.400;2023-05-10T07:07:20;14.20;99.90
48007;DHT22;33771;48.180;11.400;2023-05-10T07:09:46;14.50;99.90
48007;DHT22;33771;48.180;11.400;2023-05-10T07:12:11;14.70;99.90
48007;DHT22;33771;48.180;11.400;2023-05-10T07:14:37;14.80;99.90
48007;DHT22;33771;48.180;11.400;2023-05-10T07:17:02;14.90;99.90
48007;DHT22;33771;48.180;11.400;2023-05-10T07:19:28;15.00;99.90
48007;DHT22;33771;48.180;11.400;2023-05-10T07:21:54;15.00;99.90
48007;DHT22;33771;48.180;11.400;2023-05-10T07:24:20;15.10;99.90
48007;DHT22;33771;48.180;11.400;2023-05-10T07:26:46;15.10;99.90
48007;DHT22;33771;48.180;11.400;2023-05-10T07:29:11;15.20;99.90
48007;DHT22;33771;48.180;11.400;2023-05-10T07:31:37;15.30;99.90
48007;DHT22;33771;48.180;11.400;2023-05-10T07:34:02;15.30;99.90
48007;DHT22;33771;48.180;11.400;2023-05-10T07:36:28;15.40;99.90
48007;DHT22;33771;48.180;11.400;2023-05-10T07:38:54;15.40;99.90
48007;DHT22;33771;48.180;11.400;2023-05-10T07:41:19;15.30;99.90
48007;DHT22;33771;48.180;11.400;2023-05-10T07:43:46;15.30;99.90
48007;DHT22;33771;48.180;11.400;2023-05-10T07:46:11;15.20;99.90
48007;DHT22;33771;48.180;11.400;2023-05-10T07:48:37;15.20;99.90
48007;DHT22;33771;48.180;11.400;2023-05-10T07:51:03;15.10;99.90
48007;DHT22;33771;48.180;11.400;2023-05-10T07:53:28;15.10;99.90
48007;DHT22;33771;48.180;11.400;2023-05-10T07:55:57;15.10;99.90
48007;DHT22;33771;48.180;11.400;2023-05-10T07:58:23;15.10;99.90
48007;DHT22;33771;48.180;11.400;2023-05-10T08:00:49;15.10;99.90
48007;DHT22;33771;48.180;11.400;2023-05-10T08:03:15;15.10;99.90
48007;DHT22;33771;48.180;11.400;2023-05-10T08:05:41;15.20;99.90
48007;DHT22;33771;48.180;11.400;2023-05-10T08:08:07;15.30;99.90
48007;DHT22;33771;48.180;11.400;2023-05-10T08:10:33;15.40;99.90
48007;DHT22;33771;48.180;11.400;2023-05-10T08:12:59;15.50;99.90
48007;DHT22;33771;48.180;11.400;2023-05-10T08:15:24;15.50;99.90
48007;DHT22;33771;48.180;11.400;2023-05-10T08:17:51;15.50;99.90
48007;DHT22;33771;48.180;11.400;2023-05-10T08:20:17;15.50;99.90
48007;DHT22;33771;48.180;11.400;2023-05-10T08:22:45;15.40;99.90
48007;DHT22;33771;48.180;11.400;2023-05-10T08:25:10;15.30;99.90
48007;DHT22;33771;48.180;11.400;2023-05-10T08:27:36;15.20;99.90
48007;DHT22;33771;48.180;11.400;2023-05-10T08:30:01;15.10;99.90
48007;DHT22;33771;48.180;11.400;2023-05-10T08:32:27;15.10;99.90
48007;DHT22;33771;48.180;11.400;2023-05-10T08:34:52;15.10;99.90
48007;DHT22;33771;48.180;11.400;2023-05-10T08:37:18;15.20;99.90
48007;DHT22;33771;48.180;11.400;2023-05-10T08:39:43;15.10;99.90
48007;DHT22;33771;48.180;11.400;2023-05-10T08:42:11;15.00;99.90
48007;DHT22;33771;48.180;11.400;2023-05-10T08:44:37;14.90;99.90
48007;DHT22;33771;48.180;11.400;2023-05-10T08:47:05;14.90;99.90
48007;DHT22;33771;48.180;11.400;2023-05-10T08:49:32;14.90;99.90
48007;DHT22;33771;48.180;11.400;2023-05-10T08:52:00;15.10;99.90
48007;DHT22;33771;48.180;11.400;2023-05-10T08:54:27;15.30;99.90
48007;DHT22;33771;48.180;11.400;2023-05-10T08:56:53;15.70;99.90
48007;DHT22;33771;48.180;11.400;2023-05-10T08:59:18;16.00;99.90
48007;DHT22;33771;48.180;11.400;2023-05-10T09:01:44;16.20;99.90
48007;DHT22;33771;48.180;11.400;2023-05-10T09:04:12;16.40;99.90
48007;DHT22;33771;48.180;11.400;2023-05-10T09:06:38;16.40;99.90
48007;DHT22;33771;48.180;11.400;2023-05-10T09:09:04;16.40;99.90
48007;DHT22;33771;48.180;11.400;2023-05-10T09:11:29;16.30;99.90
48007;DHT22;33771;48.180;11.400;2023-05-10T09:13:55;16.30;99.90
48007;DHT22;33771;48.180;11.400;2023-05-10T09:16:22;16.30;99.90
48007;DHT22;33771;48.180;11.400;2023-05-10T09:18:48;16.30;99.90
48007;DHT22;33771;48.180;11.400;2023-05-10T09:21:14;16.30;99.90
48007;DHT22;33771;48.180;11.400;2023-05-10T09:23:43;16.40;99.90
48007;DHT22;33771;48.180;11.400;2023-05-10T09:26:08;16.50;99.90
48007;DHT22;33771;48.180;11.400;2023-05-10T09:28:35;16.60;99.90
48007;DHT22;33771;48.180;11.400;2023-05-10T09:31:15;16.80;99.90
48007;DHT22;33771;48.180;11.400;2023-05-10T09:33:44;16.90;99.90
48007;DHT22;33771;48.180;11.400;2023-05-10T09:36:11;16.80;99.90
48007;DHT22;33771;48.180;11.400;2023-05-10T09:38:50;16.70;99.90
48007;DHT22;33771;48.180;11.400;2023-05-10T09:41:23;16.60;99.90
48007;DHT22;33771;48.180;11.400;2023-05-10T09:43:51;16.60;99.90
48007;DHT22;33771;48.180;11.400;2023-05-10T09:46:20;16.60;99.90
48007;DHT22;33771;48.180;11.400;2023-05-10T09:48:47;16.70;99.90
48007;DHT22;33771;48.180;11.400;2023-05-10T09:51:20;16.70;99.90
48007;DHT22;33771;48.180;11.400;2023-05-10T09:53:46;16.80;99.90
48007;DHT22;33771;48.180;11.400;2023-05-10T09:56:11;17.00;99.90
48007;DHT22;33771;48.180;11.400;2023-05-10T09:58:37;17.20;99.90
48007;DHT22;33771;48.180;11.400;2023-05-10T10:01:11;17.20;99.90
48007;DHT22;33771;48.180;11.400;2023-05-10T10:03:42;17.20;99.90
48007;DHT22;33771;48.180;11.400;2023-05-10T10:06:08;17.50;99.90
48007;DHT22;33771;48.180;11.400;2023-05-10T10:08:34;17.60;99.90
48007;DHT22;33771;48.180;11.400;2023-05-10T10:11:00;17.70;99.90
48007;DHT22;33771;48.180;11.400;2023-05-10T10:13:26;17.90;99.90
48007;DHT22;33771;48.180;11.400;2023-05-10T10:15:53;18.20;99.90
48007;DHT22;33771;48.180;11.400;2023-05-10T10:18:19;18.60;99.90
48007;DHT22;33771;48.180;11.400;2023-05-10T10:20:49;18.80;99.90
48007;DHT22;33771;48.180;11.400;2023-05-10T10:23:15;18.80;99.90
48007;DHT22;33771;48.180;11.400;2023-05-10T10:25:40;18.50;99.90
48007;DHT22;33771;48.180;11.400;2023-05-10T10:31:03;17.80;99.90
48007;DHT22;33771;48.180;11.400;2023-05-10T10:33:55;17.50;99.90
48007;DHT22;33771;48.180;11.400;2023-05-10T10:36:22;17.30;99.90
48007;DHT22;33771;48.180;11.400;2023-05-10T10:41:36;17.10;99.90
48007;DHT22;33771;48.180;11.400;2023-05-10T10:50:03;17.10;99.90
48007;DHT22;33771;48.180;11.400;2023-05-10T10:52:37;16.90;99.90
48007;DHT22;33771;48.180;11.400;2023-05-10T10:55:13;16.90;99.90
48007;DHT22;33771;48.180;11.400;2023-05-10T10:57:47;16.80;99.90
48007;DHT22;33771;48.180;11.400;2023-05-10T11:00:24;16.60;99.90
48007;DHT22;33771;48.180;11.400;2023-05-10T11:02:54;16.50;99.90
48007;DHT22;33771;48.180;11.400;2023-05-10T11:10:21;15.50;99.90
48007;DHT22;33771;48.180;11.400;2023-05-10T11:12:59;15.30;99.90
48007;DHT22;33771;48.180;11.400;2023-05-10T11:15:37;15.10;99.90
48007;DHT22;33771;48.180;11.400;2023-05-10T11:18:28;14.80;99.90
48007;DHT22;33771;48.180;11.400;2023-05-10T11:20:57;14.60;99.90
48007;DHT22;33771;48.180;11.400;2023-05-10T11:23:30;14.30;99.90
48007;DHT22;33771;48.180;11.400;2023-05-10T11:25:55;14.10;99.90
48007;DHT22;33771;48.180;11.400;2023-05-10T11:28:21;13.90;99.90
48007;DHT22;33771;48.180;11.400;2023-05-10T11:30:47;13.80;99.90
48007;DHT22;33771;48.180;11.400;2023-05-10T11:33:19;13.70;99.90
48007;DHT22;33771;48.180;11.400;2023-05-10T11:35:45;13.60;99.90
48007;DHT22;33771;48.180;11.400;2023-05-10T11:38:13;13.60;99.90
48007;DHT22;33771;48.180;11.400;2023-05-10T11:40:41;13.50;99.90
48007;DHT22;33771;48.180;11.400;2023-05-10T11:43:08;13.60;99.90
48007;DHT22;33771;48.180;11.400;2023-05-10T11:45:35;13.60;99.90
48007;DHT22;33771;48.180;11.400;2023-05-10T11:48:01;13.50;99.90
48007;DHT22;33771;48.180;11.400;2023-05-10T11:50:28;13.40;99.90
48007;DHT22;33771;48.180;11.400;2023-05-10T11:52:55;13.30;99.90
48007;DHT22;33771;48.180;11.400;2023-05-10T11:55:21;13.20;99.90
48007;DHT22;33771;48.180;11.400;2023-05-10T11:57:47;13.10;99.90
48007;DHT22;33771;48.180;11.400;2023-05-10T12:00:13;13.10;99.90
48007;DHT22;33771;48.180;11.400;2023-05-10T12:02:39;13.10;99.90
48007;DHT22;33771;48.180;11.400;2023-05-10T12:05:05;13.10;99.90
48007;DHT22;33771;48.180;11.400;2023-05-10T12:07:31;13.10;99.90
48007;DHT22;33771;48.180;11.400;2023-05-10T12:10:08;13.10;99.90
48007;DHT22;33771;48.180;11.400;2023-05-10T12:12:38;13.10;99.90
48007;DHT22;33771;48.180;11.400;2023-05-10T12:15:05;13.10;99.90
48007;DHT22;33771;48.180;11.400;2023-05-10T12:17:31;13.10;99.90
48007;DHT22;33771;48.180;11.400;2023-05-10T12:20:20;13.10;99.90
48007;DHT22;33771;48.180;11.400;2023-05-10T12:22:51;13.10;99.90
48007;DHT22;33771;48.180;11.400;2023-05-10T12:25:18;13.10;99.90
48007;DHT22;33771;48.180;11.400;2023-05-10T12:27:54;13.10;99.90
48007;DHT22;33771;48.180;11.400;2023-05-10T12:30:28;13.20;99.90
48007;DHT22;33771;48.180;11.400;2023-05-10T12:32:59;13.30;99.90
48007;DHT22;33771;48.180;11.400;2023-05-10T12:35:24;13.30;99.90
48007;DHT22;33771;48.180;11.400;2023-05-10T12:37:52;13.40;99.90
48007;DHT22;33771;48.180;11.400;2023-05-10T12:40:18;13.40;99.90
48007;DHT22;33771;48.180;11.400;2023-05-10T12:42:44;13.30;99.90
48007;DHT22;33771;48.180;11.400;2023-05-10T12:45:12;13.30;99.90
48007;DHT22;33771;48.180;11.400;2023-05-10T12:47:38;13.30;99.90
48007;DHT22;33771;48.180;11.400;2023-05-10T12:50:04;13.40;99.90
48007;DHT22;33771;48.180;11.400;2023-05-10T12:52:31;13.40;99.90
48007;DHT22;33771;48.180;11.400;2023-05-10T12:54:58;13.50;99.90
48007;DHT22;33771;48.180;11.400;2023-05-10T12:57:24;13.60;99.90
48007;DHT22;33771;48.180;11.400;2023-05-10T12:59:50;13.60;99.90
48007;DHT22;33771;48.180;11.400;2023-05-10T13:02:16;13.70;99.90
48007;DHT22;33771;48.180;11.400;2023-05-10T13:04:43;13.70;99.90
48007;DHT22;33771;48.180;11.400;2023-05-10T13:07:10;13.70;99.90
48007;DHT22;33771;48.180;11.400;2023-05-10T13:09:35;13.70;99.90
48007;DHT22;33771;48.180;11.400;2023-05-10T13:12:01;13.70;99.90
48007;DHT22;33771;48.180;11.400;2023-05-10T13:14:29;13.80;99.90
48007;DHT22;33771;48.180;11.400;2023-05-10T13:16:55;13.70;99.90
48007;DHT22;33771;48.180;11.400;2023-05-10T13:19:20;13.60;99.90
48007;DHT22;33771;48.180;11.400;2023-05-10T13:21:46;13.40;99.90
48007;DHT22;33771;48.180;11.400;2023-05-10T13:24:12;13.40;99.90
48007;DHT22;33771;48.180;11.400;2023-05-10T13:26:39;13.30;99.90
48007;DHT22;33771;48.180;11.400;2023-05-10T13:29:05;13.30;99.90
48007;DHT22;33771;48.180;11.400;2023-05-10T13:31:31;13.30;99.90
48007;DHT22;33771;48.180;11.400;2023-05-10T13:33:56;13.30;99.90
48007;DHT22;33771;48.180;11.400;2023-05-10T13:36:22;13.30;99.90
48007;DHT22;33771;48.180;11.400;2023-05-10T13:38:48;13.30;99.90
48007;DHT22;33771;48.180;11.400;2023-05-10T13:41:13;13.30;99.90
48007;DHT22;33771;48.180;11.400;2023-05-10T13:43:39;13.30;99.90
48007;DHT22;33771;48.180;11.400;2023-05-10T13:46:05;13.30;99.90
48007;DHT22;33771;48.180;11.400;2023-05-10T13:48:30;13.30;99.90
48007;DHT22;33771;48.180;11.400;2023-05-10T13:50:56;13.30;99.90
48007;DHT22;33771;48.180;11.400;2023-05-10T13:53:22;13.30;99.90
48007;DHT22;33771;48.180;11.400;2023-05-10T13:55:48;13.30;99.90
48007;DHT22;33771;48.180;11.400;2023-05-10T13:58:13;13.30;99.90
48007;DHT22;33771;48.180;11.400;2023-05-10T14:00:39;13.40;99.90
48007;DHT22;33771;48.180;11.400;2023-05-10T14:03:04;13.40;99.90
48007;DHT22;33771;48.180;11.400;2023-05-10T14:05:31;13.40;99.90
48007;DHT22;33771;48.180;11.400;2023-05-10T14:07:57;13.40;99.90
48007;DHT22;33771;48.180;11.400;2023-05-10T14:10:22;13.30;99.90
48007;DHT22;33771;48.180;11.400;2023-05-10T14:12:49;13.30;99.90
48007;DHT22;33771;48.180;11.400;2023-05-10T14:15:14;13.20;99.90
48007;DHT22;33771;48.180;11.400;2023-05-10T14:17:40;13.20;99.90
48007;DHT22;33771;48.180;11.400;2023-05-10T14:20:06;13.10;99.90
48007;DHT22;33771;48.180;11.400;2023-05-10T14:22:31;13.00;99.90
48007;DHT22;33771;48.180;11.400;2023-05-10T14:24:57;13.00;99.90
48007;DHT22;33771;48.180;11.400;2023-05-10T14:27:23;12.90;99.90
48007;DHT22;33771;48.180;11.400;2023-05-10T14:29:49;12.80;99.90
48007;DHT22;33771;48.180;11.400;2023-05-10T14:32:15;12.80;99.90
48007;DHT22;33771;48.180;11.400;2023-05-10T14:34:40;12.80;99.90
48007;DHT22;33771;48.180;11.400;2023-05-10T14:37:06;12.90;99.90
48007;DHT22;33771;48.180;11.400;2023-05-10T14:39:31;12.80;99.90
48007;DHT22;33771;48.180;11.400;2023-05-10T14:41:58;12.70;99.90
48007;DHT22;33771;48.180;11.400;2023-05-10T14:44:23;12.70;99.90
48007;DHT22;33771;48.180;11.400;2023-05-10T14:46:51;12.60;99.90
48007;DHT22;33771;48.180;11.400;2023-05-10T14:49:17;12.50;99.90
48007;DHT22;33771;48.180;11.400;2023-05-10T14:51:42;12.50;99.90
48007;DHT22;33771;48.180;11.400;2023-05-10T14:54:08;12.40;99.90
48007;DHT22;33771;48.180;11.400;2023-05-10T14:56:33;12.30;99.90
48007;DHT22;33771;48.180;11.400;2023-05-10T14:58:59;12.30;99.90
48007;DHT22;33771;48.180;11.400;2023-05-10T15:01:25;12.20;99.90
48007;DHT22;33771;48.180;11.400;2023-05-10T15:03:50;12.20;99.90
48007;DHT22;33771;48.180;11.400;2023-05-10T15:06:16;12.10;99.90
48007;DHT22;33771;48.180;11.400;2023-05-10T15:08:42;12.20;99.90
48007;DHT22;33771;48.180;11.400;2023-05-10T15:11:08;12.20;99.90
48007;DHT22;33771;48.180;11.400;2023-05-10T15:13:34;12.20;99.90
48007;DHT22;33771;48.180;11.400;2023-05-10T15:15:59;12.20;99.90
48007;DHT22;33771;48.180;11.400;2023-05-10T15:18:25;12.20;99.90
48007;DHT22;33771;48.180;11.400;2023-05-10T15:20:50;12.20;99.90
48007;DHT22;33771;48.180;11.400;2023-05-10T15:23:18;12.20;99.90
48007;DHT22;33771;48.180;11.400;2023-05-10T15:25:44;12.30;99.90
48007;DHT22;33771;48.180;11.400;2023-05-10T15:28:09;12.30;99.90
48007;DHT22;33771;48.180;11.400;2023-05-10T15:30:37;12.30;99.90
48007;DHT22;33771;48.180;11.400;2023-05-10T15:33:03;12.40;99.90
48007;DHT22;33771;48.180;11.400;2023-05-10T15:35:28;12.40;99.90
48007;DHT22;33771;48.180;11.400;2023-05-10T15:37:54;12.40;99.90
48007;DHT22;33771;48.180;11.400;2023-05-10T15:40:19;12.50;99.90
48007;DHT22;33771;48.180;11.400;2023-05-10T15:42:45;12.50;99.90
48007;DHT22;33771;48.180;11.400;2023-05-10T15:45:10;12.50;99.90
48007;DHT22;33771;48.180;11.400;2023-05-10T15:47:36;12.50;99.90